createdAt,value
2018-05-01T00:01:41.936Z,0.40
2018-05-01T00:04:10.138Z,0.30
2018-05-01T00:06:37.591Z,0.80
2018-05-01T00:09:06.406Z,0.30
2018-05-01T00:11:33.896Z,0.30
2018-05-01T00:14:01.323Z,0.30
2018-05-01T00:16:28.767Z,0.30
2018-05-01T00:18:56.614Z,0.30
2018-05-01T00:21:25.561Z,0.30
2018-05-01T00:23:53.393Z,0.30
2018-05-01T00:26:20.826Z,0.30
2018-05-01T00:28:49.628Z,0.30
2018-05-01T00:31:17.084Z,0.30
2018-05-01T00:33:45.661Z,0.30
2018-05-01T00:36:13.863Z,0.30
2018-05-01T00:38:42.060Z,0.27
2018-05-01T00:41:09.527Z,0.80
2018-05-01T00:43:36.961Z,0.30
2018-05-01T00:46:04.798Z,0.30
2018-05-01T00:48:32.633Z,0.30
2018-05-01T00:51:00.076Z,0.40
2018-05-01T00:53:28.289Z,0.30
2018-05-01T00:55:55.758Z,0.40
2018-05-01T00:58:23.603Z,0.30
2018-05-01T01:00:51.054Z,0.30
2018-05-01T01:03:18.506Z,0.40
2018-05-01T01:05:45.957Z,0.30
2018-05-01T01:08:13.395Z,0.30
2018-05-01T01:10:41.969Z,0.30
2018-05-01T01:13:10.175Z,0.30
2018-05-01T01:15:37.627Z,0.30
2018-05-01T01:18:06.294Z,0.30
2018-05-01T01:20:33.743Z,0.30
2018-05-01T01:23:01.217Z,0.30
2018-05-01T01:25:29.094Z,0.20
2018-05-01T01:27:56.929Z,0.30
2018-05-01T01:30:24.777Z,0.30
2018-05-01T01:32:53.003Z,0.30
2018-05-01T01:35:19.956Z,0.30
2018-05-01T01:37:46.923Z,0.30
2018-05-01T01:40:14.210Z,0.30
2018-05-01T01:42:41.236Z,0.30
2018-05-01T01:45:08.327Z,0.30
2018-05-01T01:47:35.350Z,0.30
2018-05-01T01:50:02.435Z,0.30
2018-05-01T01:52:29.511Z,0.30
2018-05-01T01:54:57.014Z,0.30
2018-05-01T01:57:24.859Z,0.30
2018-05-01T01:59:52.282Z,0.30
2018-05-01T02:02:19.695Z,0.30
2018-05-01T02:04:46.706Z,0.20
2018-05-01T02:07:14.103Z,0.30
2018-05-01T02:09:41.120Z,0.30
2018-05-01T02:12:08.146Z,0.30
2018-05-01T02:14:35.165Z,0.30
2018-05-01T02:17:02.694Z,0.30
2018-05-01T02:19:30.505Z,0.30
2018-05-01T02:21:57.515Z,0.30
2018-05-01T02:24:24.522Z,0.30
2018-05-01T02:26:51.908Z,0.30
2018-05-01T02:29:20.563Z,0.30
2018-05-01T02:31:47.642Z,0.20
2018-05-01T02:34:14.739Z,0.30
2018-05-01T02:36:42.602Z,0.30
2018-05-01T02:39:09.650Z,0.30
2018-05-01T02:41:36.746Z,0.40
2018-05-01T02:44:04.918Z,0.30
2018-05-01T02:46:31.932Z,0.30
2018-05-01T02:48:59.084Z,0.40
2018-05-01T02:51:26.193Z,0.30
2018-05-01T02:53:53.242Z,0.33
2018-05-01T02:56:20.324Z,0.40
2018-05-01T02:58:47.411Z,0.30
2018-05-01T03:01:15.270Z,0.30
2018-05-01T03:03:43.081Z,0.27
2018-05-01T03:06:11.243Z,0.30
2018-05-01T03:08:38.250Z,0.30
2018-05-01T03:11:06.028Z,0.40
2018-05-01T03:13:33.128Z,0.30
2018-05-01T03:16:00.913Z,0.33
2018-05-01T03:18:28.732Z,0.30
2018-05-01T03:20:55.736Z,0.40
2018-05-01T03:23:23.573Z,0.40
2018-05-01T03:25:50.611Z,0.57
2018-05-01T03:28:17.620Z,0.30
2018-05-01T03:30:44.633Z,0.47
2018-05-01T03:33:11.707Z,0.30
2018-05-01T03:35:38.802Z,0.43
2018-05-01T03:38:05.878Z,0.40
2018-05-01T03:40:33.719Z,0.40
2018-05-01T03:43:00.733Z,0.40
2018-05-01T03:45:27.759Z,0.40
2018-05-01T03:47:56.422Z,0.57
2018-05-01T03:50:23.461Z,0.40
2018-05-01T03:52:52.062Z,0.50
2018-05-01T03:55:19.135Z,0.50
2018-05-01T03:57:47.249Z,0.70
2018-05-01T04:00:14.804Z,0.40
2018-05-01T04:02:43.433Z,0.57
2018-05-01T04:05:12.136Z,0.60
2018-05-01T04:07:39.229Z,0.60
2018-05-01T04:10:06.372Z,0.50
2018-05-01T04:12:33.396Z,0.60
2018-05-01T04:15:00.811Z,0.60
2018-05-01T04:17:27.839Z,0.40
2018-05-01T04:19:55.615Z,0.40
2018-05-01T04:22:22.693Z,0.63
2018-05-01T04:24:49.714Z,0.50
2018-05-01T04:27:17.558Z,0.70
2018-05-01T04:29:44.596Z,0.60
2018-05-01T04:32:11.619Z,0.70
2018-05-01T04:34:39.437Z,0.93
2018-05-01T04:37:06.484Z,0.90
2018-05-01T04:39:33.606Z,0.70
2018-05-01T04:42:01.472Z,0.63
2018-05-01T04:44:30.093Z,0.90
2018-05-01T04:46:57.870Z,0.90
2018-05-01T04:49:25.829Z,1.10
2018-05-01T04:51:54.054Z,1.00
2018-05-01T04:54:21.151Z,1.30
2018-05-01T04:56:48.217Z,1.20
2018-05-01T04:59:15.248Z,1.00
2018-05-01T05:01:42.256Z,1.00
2018-05-01T05:04:10.049Z,0.77
2018-05-01T05:06:37.814Z,1.30
2018-05-01T05:09:05.214Z,1.10
2018-05-01T05:11:32.298Z,1.00
2018-05-01T05:13:59.328Z,1.07
2018-05-01T05:16:26.346Z,1.40
2018-05-01T05:18:53.345Z,1.53
2018-05-01T05:21:20.695Z,1.20
2018-05-01T05:23:48.564Z,1.43
2018-05-01T05:26:15.605Z,1.17
2018-05-01T05:28:44.268Z,1.10
2018-05-01T05:31:11.351Z,1.80
2018-05-01T05:33:39.153Z,1.57
2018-05-01T05:36:06.959Z,1.77
2018-05-01T05:38:34.047Z,1.10
2018-05-01T05:41:01.081Z,1.60
2018-05-01T05:43:28.854Z,1.20
2018-05-01T05:45:55.995Z,1.37
2018-05-01T05:48:25.064Z,1.70
2018-05-01T05:50:52.507Z,2.07
2018-05-01T05:53:19.609Z,1.70
2018-05-01T05:55:46.712Z,1.87
2018-05-01T05:58:13.749Z,1.50
2018-05-01T06:00:40.779Z,2.00
2018-05-01T06:03:08.620Z,2.10
2018-05-01T06:05:35.718Z,2.27
2018-05-01T06:08:02.737Z,2.40
2018-05-01T06:10:29.758Z,2.20
2018-05-01T06:12:56.768Z,2.27
2018-05-01T06:15:23.856Z,2.07
2018-05-01T06:17:50.946Z,2.43
2018-05-01T06:20:19.660Z,2.47
2018-05-01T06:22:46.771Z,2.33
2018-05-01T06:25:13.787Z,2.27
2018-05-01T06:27:40.876Z,3.00
2018-05-01T06:30:08.298Z,2.53
2018-05-01T06:32:36.072Z,2.90
2018-05-01T06:35:03.083Z,2.27
2018-05-01T06:37:30.106Z,2.23
2018-05-01T06:39:57.157Z,2.13
2018-05-01T06:42:24.252Z,1.83
2018-05-01T06:44:52.121Z,2.53
2018-05-01T06:47:19.898Z,2.00
2018-05-01T06:49:46.978Z,2.40
2018-05-01T06:52:14.033Z,2.97
2018-05-01T06:54:41.140Z,2.00
2018-05-01T06:57:08.188Z,2.10
2018-05-01T06:59:35.208Z,2.17
2018-05-01T07:02:03.302Z,1.43
2018-05-01T07:04:30.410Z,1.90
2018-05-01T07:06:57.400Z,1.40
2018-05-01T07:09:25.202Z,2.10
2018-05-01T07:11:52.210Z,2.10
2018-05-01T07:14:19.839Z,2.07
2018-05-01T07:16:46.899Z,1.60
2018-05-01T07:19:14.007Z,1.80
2018-05-01T07:21:41.079Z,1.77
2018-05-01T07:24:09.231Z,3.40
2018-05-01T07:26:36.714Z,2.00
2018-05-01T07:29:03.814Z,1.77
2018-05-01T07:31:30.884Z,1.80
2018-05-01T07:33:57.983Z,2.90
2018-05-01T07:36:26.510Z,2.33
2018-05-01T07:38:53.569Z,2.67
2018-05-01T07:41:20.590Z,2.30
2018-05-01T07:43:48.123Z,2.60
2018-05-01T07:46:15.913Z,2.90
2018-05-01T07:48:43.011Z,3.07
2018-05-01T07:51:10.172Z,3.50
2018-05-01T07:53:38.031Z,3.23
2018-05-01T07:56:05.196Z,2.80
2018-05-01T07:58:32.226Z,3.87
2018-05-01T08:01:00.378Z,3.60
2018-05-01T08:03:28.198Z,3.07
2018-05-01T08:05:55.218Z,3.63
2018-05-01T08:08:23.069Z,3.20
2018-05-01T08:10:50.894Z,3.27
2018-05-01T08:13:19.495Z,3.40
2018-05-01T08:15:46.542Z,4.00
2018-05-01T08:18:13.966Z,3.97
2018-05-01T08:20:41.606Z,3.43
2018-05-01T08:23:09.519Z,3.60
2018-05-01T08:25:38.150Z,3.07
2018-05-01T08:28:05.620Z,3.20
2018-05-01T08:30:33.506Z,3.57
2018-05-01T08:33:00.540Z,3.23
2018-05-01T08:35:27.986Z,3.30
2018-05-01T08:37:56.620Z,3.20
2018-05-01T08:40:23.768Z,3.40
2018-05-01T08:42:51.654Z,3.40
2018-05-01T08:45:18.772Z,3.90
2018-05-01T08:47:46.491Z,3.20
2018-05-01T08:50:13.527Z,3.07
2018-05-01T08:52:41.336Z,3.43
2018-05-01T08:55:08.695Z,4.30
2018-05-01T08:57:35.772Z,3.47
2018-05-01T09:00:04.438Z,3.00
2018-05-01T09:02:31.605Z,3.77
2018-05-01T09:04:58.650Z,2.90
2018-05-01T09:07:26.499Z,3.47
2018-05-01T09:09:54.335Z,3.70
2018-05-01T09:12:22.415Z,3.53
2018-05-01T09:14:49.635Z,3.40
2018-05-01T09:17:17.499Z,3.17
2018-05-01T09:19:44.928Z,3.50
2018-05-01T09:22:12.360Z,3.40
2018-05-01T09:24:39.827Z,3.20
2018-05-01T09:27:07.621Z,3.97
2018-05-01T09:29:34.660Z,3.10
2018-05-01T09:32:01.700Z,3.50
2018-05-01T09:34:29.108Z,3.27
2018-05-01T09:36:56.124Z,2.80
2018-05-01T09:39:23.908Z,4.00
2018-05-01T09:41:51.753Z,5.10
2018-05-01T09:44:18.752Z,3.40
2018-05-01T09:46:46.891Z,3.60
2018-05-01T09:49:13.920Z,3.43
2018-05-01T09:51:40.932Z,3.80
2018-05-01T09:54:08.868Z,4.67
2018-05-01T09:56:37.529Z,3.33
2018-05-01T09:59:05.129Z,4.17
2018-05-01T10:01:32.715Z,4.10
2018-05-01T10:04:01.096Z,3.43
2018-05-01T10:06:28.676Z,3.70
2018-05-01T10:08:57.039Z,3.67
2018-05-01T10:11:25.725Z,2.40
2018-05-01T10:13:54.255Z,4.10
2018-05-01T10:16:21.874Z,4.23
2018-05-01T10:18:49.409Z,4.03
2018-05-01T10:21:16.935Z,3.73
2018-05-01T10:23:44.880Z,3.97
2018-05-01T10:26:13.221Z,3.37
2018-05-01T10:28:40.791Z,4.37
2018-05-01T10:31:09.061Z,4.13
2018-05-01T10:33:37.042Z,4.20
2018-05-01T10:36:04.979Z,4.60
2018-05-01T10:38:33.309Z,4.00
2018-05-01T10:41:01.647Z,3.40
2018-05-01T10:43:30.672Z,4.13
2018-05-01T10:45:58.590Z,3.50
2018-05-01T10:48:26.087Z,3.70
2018-05-01T10:50:53.606Z,4.87
2018-05-01T10:53:22.315Z,5.17
2018-05-01T10:55:49.858Z,4.70
2018-05-01T10:58:17.388Z,5.10
2018-05-01T11:00:45.332Z,4.30
2018-05-01T11:03:13.267Z,4.33
2018-05-01T11:05:41.185Z,4.20
2018-05-01T11:08:09.104Z,3.93
2018-05-01T11:10:37.020Z,3.63
2018-05-01T11:13:05.003Z,4.93
2018-05-01T11:15:32.923Z,3.70
2018-05-01T11:18:01.204Z,4.13
2018-05-01T11:20:29.547Z,4.20
2018-05-01T11:22:57.095Z,4.53
2018-05-01T11:25:26.393Z,3.80
2018-05-01T11:27:55.077Z,3.80
2018-05-01T11:30:22.608Z,3.43
2018-05-01T11:32:51.523Z,3.53
2018-05-01T11:35:19.912Z,4.20
2018-05-01T11:37:47.487Z,4.77
2018-05-01T11:40:16.236Z,3.90
2018-05-01T11:42:43.759Z,3.27
2018-05-01T11:45:11.290Z,4.03
2018-05-01T11:47:38.807Z,3.93
2018-05-01T11:50:07.483Z,3.87
2018-05-01T11:52:36.336Z,4.00
2018-05-01T11:55:03.886Z,3.67
2018-05-01T11:57:31.596Z,3.50
2018-05-01T11:59:59.148Z,4.17
2018-05-01T12:02:26.743Z,4.57
2018-05-01T12:04:55.206Z,4.13
2018-05-01T12:07:23.586Z,3.60
2018-05-01T12:09:51.140Z,3.57
2018-05-01T12:12:19.407Z,3.20
2018-05-01T12:14:47.309Z,4.23
2018-05-01T12:17:15.577Z,2.70
2018-05-01T12:19:43.838Z,3.00
2018-05-01T12:22:11.432Z,3.20
2018-05-01T12:24:38.966Z,2.57
2018-05-01T12:27:06.479Z,3.90
2018-05-01T12:29:34.003Z,3.57
2018-05-01T12:32:01.533Z,2.97
2018-05-01T12:34:29.617Z,3.37
2018-05-01T12:36:58.405Z,3.53
2018-05-01T12:39:25.849Z,2.93
2018-05-01T12:41:53.828Z,4.67
2018-05-01T12:44:21.446Z,2.80
2018-05-01T12:46:49.733Z,3.60
2018-05-01T12:49:17.896Z,3.50
2018-05-01T12:51:45.452Z,3.30
2018-05-01T12:54:13.786Z,3.80
2018-05-01T12:56:41.711Z,2.60
2018-05-01T12:59:09.687Z,2.10
2018-05-01T13:01:38.646Z,3.00
2018-05-01T13:04:06.149Z,2.90
2018-05-01T13:06:34.565Z,3.13
2018-05-01T13:09:02.915Z,2.93
2018-05-01T13:11:30.511Z,2.43
2018-05-01T13:13:58.492Z,2.80
2018-05-01T13:16:25.964Z,2.83
2018-05-01T13:18:53.454Z,3.00
2018-05-01T13:21:21.023Z,2.13
2018-05-01T13:23:48.551Z,2.43
2018-05-01T13:26:16.133Z,2.40
2018-05-01T13:28:44.473Z,2.70
2018-05-01T13:31:12.361Z,2.70
2018-05-01T13:33:40.629Z,2.50
2018-05-01T13:36:08.194Z,2.70
2018-05-01T13:38:36.854Z,2.80
2018-05-01T13:41:04.443Z,1.70
2018-05-01T13:43:32.722Z,2.17
2018-05-01T13:46:01.384Z,2.30
2018-05-01T13:48:28.888Z,2.13
2018-05-01T13:50:56.462Z,2.13
2018-05-01T13:53:23.991Z,2.20
2018-05-01T13:55:51.516Z,2.20
2018-05-01T13:58:19.430Z,2.63
2018-05-01T14:00:46.937Z,2.30
2018-05-01T14:03:14.441Z,2.73
2018-05-01T14:05:42.979Z,2.60
2018-05-01T14:08:10.494Z,2.70
2018-05-01T14:10:38.019Z,1.83
2018-05-01T14:13:05.665Z,2.13
2018-05-01T14:15:33.207Z,2.50
2018-05-01T14:18:00.720Z,2.43
2018-05-01T14:20:28.249Z,1.80
2018-05-01T14:22:55.780Z,2.60
2018-05-01T14:25:23.507Z,2.20
2018-05-01T14:27:51.375Z,2.23
2018-05-01T14:30:20.146Z,2.20
2018-05-01T14:32:48.507Z,2.23
2018-05-01T14:35:16.047Z,2.00
2018-05-01T14:37:43.554Z,1.97
2018-05-01T14:40:11.064Z,1.97
2018-05-01T14:42:38.572Z,2.57
2018-05-01T14:45:06.094Z,2.57
2018-05-01T14:47:33.624Z,2.20
2018-05-01T14:50:01.149Z,2.57
2018-05-01T14:52:29.061Z,2.23
2018-05-01T14:54:56.568Z,2.10
2018-05-01T14:57:24.927Z,1.97
2018-05-01T14:59:52.704Z,1.73
2018-05-01T15:02:21.588Z,2.37
2018-05-01T15:04:49.100Z,2.67
2018-05-01T15:07:17.788Z,2.10
2018-05-01T15:09:45.791Z,1.97
2018-05-01T15:12:13.380Z,2.87
2018-05-01T15:14:40.912Z,1.83
2018-05-01T15:17:08.400Z,2.00
2018-05-01T15:19:35.917Z,2.03
2018-05-01T15:22:04.617Z,1.70
2018-05-01T15:24:32.132Z,2.23
2018-05-01T15:27:00.406Z,1.83
2018-05-01T15:29:28.309Z,2.50
2018-05-01T15:31:55.802Z,1.90
2018-05-01T15:34:24.523Z,1.80
2018-05-01T15:36:52.046Z,3.07
2018-05-01T15:39:19.952Z,2.67
2018-05-01T15:41:48.210Z,2.90
2018-05-01T15:44:15.736Z,3.33
2018-05-01T15:46:43.306Z,2.93
2018-05-01T15:49:11.275Z,2.67
2018-05-01T15:51:38.818Z,1.80
2018-05-01T15:54:06.392Z,1.73
2018-05-01T15:56:33.919Z,2.70
2018-05-01T15:59:01.432Z,1.60
2018-05-01T16:01:28.935Z,1.70
2018-05-01T16:03:56.446Z,2.13
2018-05-01T16:06:23.947Z,2.00
2018-05-01T16:08:51.469Z,1.40
2018-05-01T16:11:19.841Z,2.20
2018-05-01T16:13:47.393Z,1.97
2018-05-01T16:16:14.961Z,1.97
2018-05-01T16:18:42.462Z,2.13
2018-05-01T16:21:10.746Z,1.70
2018-05-01T16:23:38.355Z,1.80
2018-05-01T16:26:05.868Z,1.87
2018-05-01T16:28:33.371Z,1.90
2018-05-01T16:31:00.939Z,1.80
2018-05-01T16:33:29.213Z,2.10
2018-05-01T16:35:56.740Z,2.20
2018-05-01T16:38:24.308Z,1.93
2018-05-01T16:40:51.910Z,1.53
2018-05-01T16:43:19.422Z,1.63
2018-05-01T16:45:47.691Z,1.43
2018-05-01T16:48:15.994Z,1.90
2018-05-01T16:50:44.271Z,1.70
2018-05-01T16:53:12.920Z,1.70
2018-05-01T16:55:40.424Z,2.13
2018-05-01T16:58:08.720Z,1.60
2018-05-01T17:00:37.001Z,1.83
2018-05-01T17:03:05.651Z,1.53
2018-05-01T17:05:33.160Z,1.53
2018-05-01T17:08:01.065Z,1.90
2018-05-01T17:10:28.574Z,1.50
2018-05-01T17:12:56.157Z,1.70
2018-05-01T17:15:24.049Z,1.90
2018-05-01T17:17:52.280Z,2.10
2018-05-01T17:20:21.613Z,1.70
2018-05-01T17:22:49.193Z,1.60
2018-05-01T17:25:17.411Z,1.37
2018-05-01T17:27:46.274Z,1.50
2018-05-01T17:30:14.268Z,1.30
2018-05-01T17:32:42.021Z,1.50
2018-05-01T17:35:09.534Z,1.10
2018-05-01T17:37:37.561Z,1.37
2018-05-01T17:40:05.477Z,1.43
2018-05-01T17:42:33.062Z,1.83
2018-05-01T17:45:01.452Z,1.40
2018-05-01T17:47:28.968Z,1.40
2018-05-01T17:49:56.946Z,1.50
2018-05-01T17:52:24.460Z,1.83
2018-05-01T17:54:51.974Z,1.30
2018-05-01T17:57:20.365Z,1.50
2018-05-01T17:59:48.715Z,1.60
2018-05-01T18:02:17.745Z,1.70
2018-05-01T18:04:45.648Z,1.37
2018-05-01T18:07:13.924Z,1.43
2018-05-01T18:09:41.522Z,1.30
2018-05-01T18:12:09.062Z,1.20
2018-05-01T18:14:38.008Z,1.40
2018-05-01T18:17:05.528Z,1.40
2018-05-01T18:19:33.451Z,1.30
2018-05-01T18:22:02.531Z,1.20
2018-05-01T18:24:30.146Z,1.40
2018-05-01T18:26:57.626Z,1.40
2018-05-01T18:29:25.569Z,1.80
2018-05-01T18:31:53.231Z,1.20
2018-05-01T18:34:21.166Z,1.60
2018-05-01T18:36:49.550Z,1.30
2018-05-01T18:39:17.914Z,1.40
2018-05-01T18:41:45.528Z,1.33
2018-05-01T18:44:13.885Z,1.57
2018-05-01T18:46:41.384Z,1.30
2018-05-01T18:49:08.889Z,1.40
2018-05-01T18:51:36.907Z,1.93
2018-05-01T18:54:04.465Z,1.80
2018-05-01T18:56:32.743Z,1.33
2018-05-01T18:59:01.012Z,1.20
2018-05-01T19:01:28.617Z,1.30
2018-05-01T19:03:56.229Z,1.67
2018-05-01T19:06:23.768Z,1.70
2018-05-01T19:08:52.884Z,2.30
2018-05-01T19:11:21.020Z,1.60
2018-05-01T19:13:49.024Z,1.57
2018-05-01T19:16:16.541Z,2.00
2018-05-01T19:18:46.030Z,1.50
2018-05-01T19:21:13.934Z,1.40
2018-05-01T19:23:42.223Z,1.73
2018-05-01T19:26:10.219Z,2.40
2018-05-01T19:28:38.537Z,1.87
2018-05-01T19:31:06.098Z,2.17
2018-05-01T19:33:33.650Z,1.80
2018-05-01T19:36:01.959Z,1.57
2018-05-01T19:38:30.344Z,1.87
2018-05-01T19:40:57.873Z,2.30
2018-05-01T19:43:25.774Z,1.60
2018-05-01T19:45:53.297Z,2.30
2018-05-01T19:48:20.797Z,2.20
2018-05-01T19:50:49.139Z,2.20
2018-05-01T19:53:16.705Z,2.10
2018-05-01T19:55:44.698Z,2.07
2018-05-01T19:58:12.236Z,2.00
2018-05-01T20:00:39.753Z,2.17
2018-05-01T20:03:07.416Z,2.30
2018-05-01T20:05:35.288Z,1.93
2018-05-01T20:08:03.189Z,1.50
2018-05-01T20:10:30.706Z,2.70
2018-05-01T20:12:58.623Z,2.00
2018-05-01T20:15:26.274Z,2.83
2018-05-01T20:17:54.668Z,2.20
2018-05-01T20:20:22.264Z,2.20
2018-05-01T20:22:49.780Z,1.80
2018-05-01T20:25:18.469Z,1.83
2018-05-01T20:27:48.130Z,3.53
2018-05-01T20:30:15.662Z,1.70
2018-05-01T20:32:43.162Z,2.57
2018-05-01T20:35:11.546Z,2.80
2018-05-01T20:37:39.233Z,2.67
2018-05-01T20:40:06.993Z,3.00
2018-05-01T20:42:34.581Z,2.97
2018-05-01T20:45:03.681Z,2.80
2018-05-01T20:47:31.341Z,4.50
2018-05-01T20:49:58.838Z,3.07
2018-05-01T20:52:26.335Z,2.90
2018-05-01T20:54:54.684Z,3.20
2018-05-01T20:57:22.257Z,3.20
2018-05-01T20:59:49.883Z,3.50
2018-05-01T21:02:17.937Z,3.10
2018-05-01T21:04:46.499Z,3.30
2018-05-01T21:07:14.405Z,3.13
2018-05-01T21:09:42.008Z,3.57
2018-05-01T21:12:09.511Z,3.43
2018-05-01T21:14:37.779Z,3.50
2018-05-01T21:17:06.676Z,3.43
2018-05-01T21:19:34.282Z,3.73
2018-05-01T21:22:01.789Z,3.43
2018-05-01T21:24:30.128Z,3.73
2018-05-01T21:26:58.017Z,3.23
2018-05-01T22:51:23.042Z,2.77
2018-05-01T22:53:50.541Z,2.87
2018-05-01T22:56:18.492Z,3.80
2018-05-01T22:58:46.476Z,3.57
2018-05-01T23:01:14.439Z,3.20
2018-05-01T23:03:42.048Z,3.83
2018-05-01T23:06:09.636Z,2.93
2018-05-01T23:08:37.176Z,3.27
2018-05-01T23:11:04.666Z,3.77
2018-05-01T23:13:32.989Z,3.17
2018-05-01T23:16:00.486Z,3.10
2018-05-01T23:18:28.044Z,3.63
2018-05-01T23:20:55.555Z,3.20
2018-05-01T23:23:23.453Z,3.50
2018-05-01T23:25:51.787Z,3.60
2018-05-01T23:28:19.358Z,3.87
2018-05-01T23:30:46.943Z,3.97
2018-05-01T23:33:14.839Z,4.07
2018-05-01T23:35:42.407Z,3.80
2018-05-01T23:38:10.808Z,4.03
2018-05-01T23:40:39.158Z,3.90
2018-05-01T23:43:06.745Z,3.50
2018-05-01T23:45:34.243Z,4.03
2018-05-01T23:48:02.137Z,4.57
2018-05-01T23:50:29.715Z,4.60
2018-05-01T23:52:58.056Z,4.17
2018-05-01T23:55:25.649Z,3.97
2018-05-01T23:57:54.025Z,4.23
